Data for 07/24/2017

Time Sea-Level Adjusted Pressure Absolute Pressure Temperature Relative Humidity Dew Point   
(mb) (inHg) (mb) (inHg) (C) (F) (%) (C) (F)
00:05 1017 30.03 846 24.98 21.1 69.9 27 1.7 35.1
00:10 1017 30.03 846 24.98 20.9 69.6 28 1.6 34.9
00:15 1017 30.03 846 24.98 20.7 69.3 28 1.9 35.4
00:20 1017 30.03 846 24.98 20.6 69 28 1.6 35
00:25 1017 30.03 846 24.98 20.5 68.9 28 1.6 34.9
00:30 1017 30.03 846 24.98 20.6 69 28 1.5 34.7
00:35 1017 30.03 846 24.98 20.6 69.1 30 2.7 36.8
00:40 1017 30.03 846 24.98 20 68 30 2.1 35.7
00:45 1017 30.03 846 24.98 19.9 67.9 30 2 35.5
00:50 1017 30.03 846 24.98 19.8 67.6 31 2.4 36.3
00:55 1017 30.03 846 24.98 19.3 66.7 33 2.8 37.1
01:00 1017 30.03 846 24.98 18.7 65.6 35 3.2 37.7
01:05 1017 30.03 846 24.98 18.5 65.3 34 2.5 36.5
01:10 1017 30.03 846 24.98 18.7 65.6 33 2.3 36.2
01:15 1017 30.03 846 24.98 18.7 65.7 35 3.1 37.6
01:20 1017 30.03 846 24.98 18.3 64.9 36 3.2 37.7
01:25 1017 30.03 846 24.98 17.9 64.2 38 3.5 38.3
01:30 1017 30.03 846 24.98 17.4 63.4 39 3.5 38.3
01:35 1017 30.03 846 24.98 17 62.7 41 3.9 39
01:40 1017 30.03 846 24.98 16.8 62.3 41 3.7 38.7
01:45 1017 30.03 846 24.98 16.9 62.4 41 3.5 38.3
01:50 1017 30.03 846 24.98 17.2 63 38 3 37.3
01:55 1017 30.03 846 24.98 17.7 63.8 33 1.3 34.3
02:00 1017 30.03 846 24.98 18.8 65.8 31 1.7 35
02:05 1017 30.03 846 24.98 18.9 66.1 32 1.9 35.5
02:10 1017 30.03 846 24.98 18.7 65.6 33 2.4 36.3
02:15 1017 30.03 846 24.98 18.4 65 32 1.6 35
02:20 1017 30.03 846 24.98 18.8 65.8 32 1.7 35
02:25 1017 30.03 846 24.98 18.5 65.3 33 2 35.6
02:30 1017 30.03 846 24.98 18.5 65.2 33 1.9 35.3
02:35 1017 30.03 846 24.98 18.8 65.9 32 2 35.6
02:40 1017 30.03 846 24.98 18.8 65.9 33 2.2 36
02:45 1017 30.03 846 24.98 18.6 65.5 33 2.4 36.2
02:50 1017 30.03 846 24.98 18.6 65.4 32 1.7 35
02:55 1017 30.03 846 24.98 19 66.2 32 2.1 35.7
03:00 1017 30.03 846 24.98 18.9 66.1 32 2.1 35.7
03:05 1017 30.03 846 24.98 18.8 65.8 31 1.5 34.8
03:10 1017 30.03 846 24.98 18.8 65.8 33 2.1 35.8
03:15 1017 30.03 846 24.98 18.3 65 35 2.6 36.6
03:20 1017 30.03 846 24.98 18.1 64.6 33 1.9 35.4
03:25 1017 30.03 846 24.98 18.2 64.7 34 2.2 35.9
03:30 1017 30.03 846 24.98 18 64.4 35 2.4 36.4
03:35 1017 30.03 846 24.98 18.2 64.8 33 2 35.5
03:40 1017 30.03 846 24.98 18.3 65 33 1.8 35.3
03:45 1017 30.03 847 25.01 18.6 65.5 33 2 35.7
03:50 1017 30.03 847 25.01 18.7 65.7 33 2.2 35.9
03:55 1017 30.03 847 25.01 18.3 65 35 2.8 37
04:00 1017 30.03 847 25.01 17.8 64.1 34 1.8 35.2
04:05 1017 30.03 847 25.01 18 64.5 35 2.6 36.8
04:10 1018 30.06 847 25.01 17.6 63.7 36 2.5 36.5
04:15 1018 30.06 847 25.01 17.4 63.3 37 2.7 36.8
04:20 1018 30.06 847 25.01 17.1 62.7 36 2.1 35.7
04:25 1018 30.06 847 25.01 17.3 63.1 37 2.4 36.4
04:30 1018 30.06 847 25.01 17 62.7 38 2.9 37.2
04:35 1018 30.06 847 25.01 16.8 62.2 40 3.1 37.6
04:40 1018 30.06 847 25.01 16.4 61.5 40 3 37.4
04:45 1018 30.06 847 25.01 16.2 61.2 40 2.6 36.6
04:50 1018 30.06 847 25.01 16.5 61.8 38 2.2 36
04:55 1018 30.06 847 25.01 16.9 62.4 38 2.6 36.6
05:00 1018 30.06 847 25.01 16.9 62.4 38 2.5 36.5
05:05 1018 30.06 847 25.01 17.2 62.9 36 2.2 35.9
05:10 1018 30.06 847 25.01 17.3 63.2 36 2.2 36
05:15 1018 30.06 847 25.01 17.5 63.4 37 2.6 36.6
05:20 1018 30.06 847 25.01 17.5 63.5 36 2.6 36.7
05:25 1018 30.06 847 25.01 17.6 63.6 36 2.5 36.6
05:30 1018 30.06 847 25.01 17.7 63.8 36 2.7 36.9
05:35 1018 30.06 847 25.01 17.6 63.7 38 3.1 37.6
05:40 1018 30.06 847 25.01 17.6 63.6 40 3.7 38.7
05:45 1018 30.06 847 25.01 17 62.6 42 4 39.2
05:50 1018 30.06 847 25.01 17.1 62.7 39 3 37.4
05:55 1018 30.06 848 25.04 17.3 63.1 39 3.3 37.9
06:00 1018 30.06 848 25.04 17.2 62.9 40 3.6 38.4
06:05 1018 30.06 848 25.04 17.2 62.9 41 4 39.3
06:10 1018 30.06 848 25.04 17.3 63.1 41 4.2 39.5
06:15 1019 30.09 848 25.04 17.3 63.1 43 4.8 40.6
06:20 1019 30.09 848 25.04 17.3 63.1 41 4.1 39.4
06:25 1019 30.09 848 25.04 17.5 63.5 42 4.5 40.1
06:30 1019 30.09 848 25.04 17.7 63.8 46 5.9 42.6
06:35 1019 30.09 848 25.04 17.9 64.2 41 4.5 40.1
06:40 1019 30.09 848 25.04 18.3 64.9 39 4.3 39.8
06:45 1019 30.09 848 25.04 18.6 65.5 38 4 39.2
06:50 1019 30.09 848 25.04 19 66.3 38 4.6 40.3
06:55 1019 30.09 848 25.04 19.5 67.1 38 5 41
07:00 1019 30.09 848 25.04 19.8 67.6 37 4.8 40.6
07:05 1019 30.09 848 25.04 20.4 68.7 34 4 39.2
07:10 1019 30.09 848 25.04 21.3 70.3 33 4.4 40
07:15 1019 30.09 848 25.04 22 71.5 32 4.7 40.4
07:20 1019 30.09 848 25.04 22.2 72 32 5 41.1
07:25 1019 30.09 848 25.04 21.9 71.4 33 5.1 41.1
07:30 1019 30.09 848 25.04 21.6 70.8 34 5.2 41.3
07:35 1019 30.09 848 25.04 21.5 70.8 34 5.2 41.4
07:40 1019 30.09 848 25.04 21.5 70.8 35 5.4 41.8
07:45 1019 30.09 848 25.04 21.6 70.8 34 5.4 41.7
07:50 1019 30.09 848 25.04 22 71.6 35 5.9 42.5
07:55 1019 30.09 848 25.04 22.2 71.9 38 7.2 45
08:00 1019 30.09 848 25.04 22.8 73.1 31 4.9 40.8
08:05 1019 30.09 848 25.04 23.3 73.9 33 6.1 43.1
08:10 1019 30.09 848 25.04 23.1 73.6 30 4.8 40.7
08:15 1019 30.09 848 25.04 23 73.4 29 4.1 39.3
08:20 1019 30.09 848 25.04 23.2 73.8 28 3.8 38.8
08:25 1019 30.09 848 25.04 23.8 74.8 26 3.2 37.8
08:30 1019 30.09 848 25.04 24.6 76.2 25 3.3 37.9
08:35 1019 30.09 848 25.04 25.1 77.1 26 4.2 39.6
08:40 1019 30.09 848 25.04 25.7 78.2 24 4 39.3
08:45 1019 30.09 848 25.04 25.9 78.6 26 5 41
08:50 1019 30.09 848 25.04 26.2 79.2 24 4.5 40.1
08:55 1019 30.09 848 25.04 26.5 79.7 24 4.8 40.7
09:00 1019 30.09 848 25.04 26.9 80.3 24 4.8 40.6
09:05 1019 30.09 848 25.04 26.2 79.2 25 4.7 40.5
09:10 1019 30.09 848 25.04 26.3 79.4 24 4.7 40.4
09:15 1018 30.06 848 25.04 26.1 79 24 4.2 39.5
09:20 1019 30.09 848 25.04 25.7 78.3 27 5.6 42
09:25 1018 30.06 848 25.04 25.9 78.7 24 3.9 39.1
09:30 1018 30.06 848 25.04 26 78.8 24 4.3 39.8
09:35 1018 30.06 848 25.04 26.6 79.9 23 4.2 39.6
09:40 1018 30.06 848 25.04 27.3 81.1 23 4.5 40.1
09:45 1018 30.06 848 25.04 27.6 81.7 22 4.3 39.7
09:50 1018 30.06 848 25.04 27.7 81.9 22 4.6 40.2
09:55 1018 30.06 848 25.04 27.5 81.5 22 4.4 40
10:00 1018 30.06 848 25.04 28.1 82.6 21 4.4 39.9
10:05 1018 30.06 848 25.04 27.6 81.7 23 4.7 40.5
10:10 1018 30.06 848 25.04 27.5 81.4 23 4.5 40.1
10:15 1018 30.06 847 25.01 27.8 82.1 21 3.7 38.7
10:20 1018 30.06 848 25.04 28.2 82.8 22 4.5 40.1
10:25 1018 30.06 848 25.04 28.5 83.2 20 3.7 38.7
10:30 1018 30.06 847 25.01 28.4 83.2 21 4.5 40.2
10:35 1018 30.06 847 25.01 28.7 83.6 20 4.1 39.3
10:40 1018 30.06 847 25.01 29 84.2 20 4.2 39.6
10:45 1018 30.06 847 25.01 28.2 82.8 22 4.5 40.2
10:50 1018 30.06 847 25.01 28.7 83.7 19 3.1 37.5
10:55 1018 30.06 847 25.01 28.5 83.4 20 3.7 38.7
11:00 1018 30.06 847 25.01 28.8 83.9 20 4 39.3
11:05 1018 30.06 847 25.01 28.9 83.9 20 3.9 39.1
11:10 1018 30.06 847 25.01 28.6 83.5 20 3.8 38.8
11:15 1018 30.06 847 25.01 29.1 84.3 19 3.6 38.5
11:20 1018 30.06 847 25.01 29.2 84.6 20 4 39.2
11:25 1018 30.06 847 25.01 29.3 84.7 19 3.8 38.8
11:30 1018 30.06 847 25.01 29.3 84.8 19 3.6 38.5
11:35 1018 30.06 847 25.01 29.3 84.8 19 3.9 39
11:40 1018 30.06 847 25.01 29.4 84.9 18 3.3 37.9
11:45 1018 30.06 847 25.01 29.9 85.8 21 5.8 42.5
11:50 1018 30.06 847 25.01 29.3 84.7 19 3.4 38.1
11:55 1018 30.06 847 25.01 28.5 83.3 20 4 39.3
12:00 1018 30.06 847 25.01 28.4 83 20 3.2 37.8
12:05 1018 30.06 847 25.01 29.6 85.2 19 3.8 38.9
12:10 1018 30.06 847 25.01 29.5 85.1 18 2.9 37.2
12:15 1018 30.06 847 25.01 30.6 87 17 3.1 37.5
12:20 1018 30.06 847 25.01 31.3 88.4 16 3.3 37.9
12:25 1018 30.06 847 25.01 31.1 88 17 3.2 37.8
12:30 1017 30.03 847 25.01 31 87.8 17 3.7 38.7
12:35 1017 30.03 847 25.01 30.5 86.9 17 3 37.4
12:40 1017 30.03 847 25.01 31.5 88.6 15 2.3 36.2
12:45 1017 30.03 846 24.98 31.3 88.3 16 2.6 36.7
12:50 1017 30.03 846 24.98 30.3 86.5 18 3.8 38.9
12:55 1017 30.03 846 24.98 30.6 87.1 15 1.5 34.8
13:00 1017 30.03 846 24.98 30.7 87.2 16 2 35.6
13:05 1017 30.03 846 24.98 30.7 87.3 17 3.1 37.6
13:10 1017 30.03 846 24.98 30.7 87.2 16 2.4 36.4
13:15 1017 30.03 846 24.98 31 87.8 15 2.2 35.9
13:20 1017 30.03 846 24.98 32.2 90 14 1.7 35
13:25 1017 30.03 846 24.98 32.1 89.7 14 1.9 35.3
13:30 1017 30.03 846 24.98 31.8 89.2 14 1.4 34.5
13:35 1017 30.03 846 24.98 32.3 90.1 14 1.8 35.2
13:40 1017 30.03 846 24.98 32.4 90.3 14 2.4 36.3
13:45 1017 30.03 846 24.98 32.7 90.9 15 3.1 37.5
13:50 1017 30.03 846 24.98 31.9 89.4 15 2.8 37.1
13:55 1017 30.03 846 24.98 31.6 88.9 15 1.9 35.5
14:00 1017 30.03 846 24.98 32.1 89.7 15 2.5 36.5
14:05 1017 30.03 846 24.98 31.3 88.3 17 4 39.2
14:10 1017 30.03 846 24.98 31.7 89 16 2.8 37
14:15 1017 30.03 846 24.98 32.1 89.7 14 1.8 35.3
14:20 1017 30.03 846 24.98 32 89.6 14 1.8 35.3
14:25 1017 30.03 846 24.98 31.6 88.9 16 2.7 36.9
14:30 1017 30.03 846 24.98 31.7 89.1 14 1.7 35.1
14:35 1017 30.03 846 24.98 31.6 88.9 15 1.8 35.3
14:40 1017 30.03 846 24.98 31.7 89 15 1.9 35.5
14:45 1017 30.03 846 24.98 32 89.5 14 2 35.6
14:50 1016 30 846 24.98 32.5 90.4 14 1.7 35.1
14:55 1016 30 846 24.98 32.1 89.7 15 2.2 36
15:00 1017 30.03 846 24.98 31.7 89.1 15 1.9 35.4
15:05 1016 30 846 24.98 31.8 89.2 15 2.3 36.1
15:10 1016 30 846 24.98 31.5 88.7 15 2.2 35.9
15:15 1016 30 846 24.98 32.2 89.9 14 1.8 35.2
15:20 1016 30 846 24.98 31.6 88.8 15 1.8 35.3
15:25 1016 30 846 24.98 31.4 88.6 14 1.3 34.3
15:30 1016 30 846 24.98 31.2 88.1 15 2 35.5
15:35 1016 30 846 24.98 31.1 87.9 14 1.1 34
15:40 1016 30 845 24.95 30.8 87.4 15 1.1 34.1
15:45 1016 30 846 24.98 31.5 88.7 14 1.3 34.4
15:50 1016 30 846 24.98 31.8 89.2 14 1.8 35.3
15:55 1016 30 845 24.95 31.8 89.3 14 1.1 34
16:00 1016 30 845 24.95 32.2 89.9 14 2.1 35.9
16:05 1016 30 845 24.95 31.4 88.6 15 1.6 34.9
16:10 1016 30 845 24.95 30.9 87.5 15 1.5 34.7
16:15 1016 30 845 24.95 30.6 87.1 15 1.5 34.6
16:20 1016 30 845 24.95 30.9 87.6 14 0.5 32.9
16:25 1016 30 845 24.95 31.1 88 14 0.5 32.9
16:30 1016 30 845 24.95 31 87.9 14 0.8 33.4
16:35 1016 30 845 24.95 30.7 87.2 14 0.5 32.9
16:40 1016 30 845 24.95 30.5 86.8 14 0.7 33.3
16:45 1016 30 845 24.95 30.6 87.1 14 0.5 33
16:50 1016 30 845 24.95 30.9 87.5 14 0.8 33.5
16:55 1016 30 845 24.95 30.9 87.6 14 0.3 32.6
17:00 1016 30 845 24.95 30.7 87.2 14 0.4 32.8
17:05 1016 30 845 24.95 30.3 86.5 15 1.2 34.2
17:10 1016 30 845 24.95 29.9 85.8 19 4.5 40.1
17:15 1016 30 845 24.95 29.3 84.7 20 4.1 39.4
17:20 1016 30 846 24.98 28.7 83.7 21 4.5 40.1
17:25 1016 30 845 24.95 28.5 83.3 19 2.8 37
17:30 1016 30 846 24.98 28.2 82.8 18 1.8 35.2
17:35 1016 30 845 24.95 28 82.4 17 0.7 33.3
17:40 1016 30 846 24.98 28 82.4 20 3.2 37.8
17:45 1016 30 846 24.98 27.2 80.9 20 2.3 36.2
17:50 1016 30 845 24.95 27.2 80.9 19 1.8 35.3
17:55 1016 30 845 24.95 27.5 81.5 18 1.4 34.6
18:00 1017 30.03 846 24.98 27.2 80.9 23 4.7 40.4
18:05 1017 30.03 846 24.98 26.1 79 20 2 35.6
18:10 1017 30.03 846 24.98 26.2 79.1 23 3.6 38.4
18:15 1017 30.03 846 24.98 25.1 77.2 26 4.7 40.5
18:20 1017 30.03 846 24.98 24.3 75.7 30 6 42.8
18:25 1017 30.03 846 24.98 24.4 76 29 5.6 42.1
18:30 1017 30.03 846 24.98 23.9 74.9 31 5.8 42.4
18:35 1017 30.03 846 24.98 23.7 74.6 31 5.9 42.7
18:40 1017 30.03 846 24.98 23.8 74.8 29 4.7 40.5
18:45 1017 30.03 846 24.98 23.9 75 29 4.8 40.6
18:50 1017 30.03 846 24.98 23.8 74.8 29 4.9 40.8
18:55 1017 30.03 846 24.98 23.5 74.3 31 5.7 42.3
19:00 1018 30.06 847 25.01 23 73.5 33 6.2 43.1
19:05 1018 30.06 847 25.01 22.7 72.9 36 7 44.5
19:10 1018 30.06 847 25.01 22.3 72.2 36 6.6 43.8
19:15 1018 30.06 847 25.01 22.5 72.4 36 6.9 44.5
19:20 1018 30.06 847 25.01 22.2 72 36 6.4 43.6
19:25 1018 30.06 847 25.01 22.9 73.2 29 4.4 39.9
19:30 1018 30.06 847 25.01 23.5 74.3 30 5 41.1
19:35 1018 30.06 847 25.01 23.6 74.5 28 4.4 39.9
19:40 1017 30.03 846 24.98 23.6 74.4 29 4.6 40.3
19:45 1017 30.03 846 24.98 23.5 74.3 28 4.2 39.6
19:50 1017 30.03 846 24.98 23.7 74.7 27 3.8 38.9
19:55 1017 30.03 846 24.98 23.7 74.6 27 3.9 39.1
20:00 1017 30.03 847 25.01 23.6 74.6 26 3.2 37.7
20:05 1017 30.03 847 25.01 23.9 75.1 26 3.5 38.3
20:10 1018 30.06 847 25.01 23.6 74.5 29 4.6 40.3
20:15 1018 30.06 847 25.01 22.9 73.2 31 5.1 41.1
20:20 1018 30.06 847 25.01 22.5 72.4 30 4.1 39.4
20:25 1018 30.06 847 25.01 22.7 72.8 30 4.2 39.6
20:30 1018 30.06 847 25.01 22.8 73 29 4.2 39.5
20:35 1018 30.06 847 25.01 22.8 73.1 29 4 39.2
20:40 1018 30.06 847 25.01 23 73.4 28 3.7 38.6
20:45 1018 30.06 847 25.01 23.3 73.9 27 3.2 37.8
20:50 1018 30.06 847 25.01 23.4 74.2 27 3.4 38.1
20:55 1018 30.06 847 25.01 23.4 74.1 27 3.4 38.1
21:00 1018 30.06 847 25.01 23.3 73.9 27 3.6 38.4
21:05 1018 30.06 847 25.01 23 73.4 29 4.3 39.7
21:10 1018 30.06 848 25.04 22.9 73.2 28 3.7 38.6
21:15 1018 30.06 848 25.04 22.8 73.1 29 4 39.2
21:20 1018 30.06 848 25.04 22.8 73 28 3.4 38.2
21:25 1018 30.06 848 25.04 22.8 73.1 28 3.8 38.8
21:30 1018 30.06 848 25.04 22.7 72.8 28 3.7 38.6
21:35 1018 30.06 848 25.04 22.6 72.6 29 3.9 39.1
21:40 1018 30.06 848 25.04 22.3 72.2 30 4.1 39.4
21:45 1018 30.06 848 25.04 22.1 71.8 31 4.3 39.7
21:50 1018 30.06 848 25.04 21.9 71.4 31 4.4 39.9
21:55 1018 30.06 848 25.04 21.7 71.1 32 4.4 40
22:00 1018 30.06 848 25.04 21.6 70.9 32 4.5 40
22:05 1019 30.09 848 25.04 21.6 70.8 32 4.5 40.1
22:10 1019 30.09 848 25.04 21.5 70.7 32 4.4 39.9
22:15 1019 30.09 848 25.04 21.5 70.7 32 4.1 39.4
22:20 1019 30.09 848 25.04 21.7 71 31 4.2 39.6
22:25 1019 30.09 848 25.04 21.7 71 31 4.2 39.6
22:30 1019 30.09 848 25.04 21.7 71 32 4.3 39.7
22:35 1019 30.09 848 25.04 21.6 70.9 32 4.3 39.7
22:40 1019 30.09 848 25.04 21.5 70.8 32 4.3 39.7
22:45 1019 30.09 848 25.04 21.4 70.5 33 4.8 40.7
22:50 1019 30.09 848 25.04 21.2 70.2 35 5.5 41.8
22:55 1019 30.09 848 25.04 20.9 69.6 37 5.8 42.4
23:00 1019 30.09 848 25.04 20.9 69.5 34 4.5 40
23:05 1019 30.09 848 25.04 20.9 69.7 34 4.5 40
23:10 1019 30.09 849 25.07 21 69.8 39 6.6 43.9
23:15 1019 30.09 849 25.07 20 68 41 6.7 44
23:20 1019 30.09 849 25.07 19.8 67.6 41 6.4 43.6
23:25 1019 30.09 849 25.07 19.7 67.4 42 6.4 43.6
23:30 1019 30.09 849 25.07 19.5 67 43 6.7 44.1
23:35 1020 30.12 849 25.07 19.4 66.9 42 6.4 43.5
23:40 1020 30.12 849 25.07 19.8 67.7 41 6.5 43.7
23:45 1020 30.12 849 25.07 19.8 67.6 42 6.6 43.9
23:50 1020 30.12 849 25.07 19.8 67.6 39 5.7 42.3
23:55 1020 30.12 849 25.07 20.3 68.5 41 6.7 44.1
24:00 1020 30.12 849 25.07 19.8 67.7 43 6.9 44.5